createdAt,value
2023-01-26T00:01:45.488Z,102426.56
2023-01-26T00:04:30.593Z,102434.44
2023-01-26T00:07:15.946Z,102436.25
2023-01-26T00:10:01.191Z,102441.59
2023-01-26T00:12:46.208Z,102442.56
2023-01-26T00:15:36.122Z,102410.03
2023-01-26T00:18:21.332Z,102435.78
2023-01-26T00:21:07.860Z,102430.63
2023-01-26T00:23:53.370Z,102421.28
2023-01-26T00:26:38.433Z,102422.97
2023-01-26T00:29:23.421Z,102394.75
2023-01-26T00:32:08.533Z,102418.81
2023-01-26T00:34:53.552Z,102425.66
2023-01-26T00:37:41.571Z,102412.03
2023-01-26T00:40:26.804Z,102430.13
2023-01-26T00:43:12.137Z,102442.19
2023-01-26T00:45:58.252Z,102433.56
2023-01-26T00:48:43.072Z,102434.34
2023-01-26T00:51:28.157Z,102429.19
2023-01-26T00:54:13.394Z,102422.34
2023-01-26T00:56:58.860Z,102437.00
2023-01-26T00:59:44.124Z,102432.59
2023-01-26T01:02:29.238Z,102433.44
2023-01-26T01:05:14.382Z,102416.25
2023-01-26T01:07:59.788Z,102423.03
2023-01-26T01:10:45.045Z,102431.69
2023-01-26T01:13:30.173Z,102429.16
2023-01-26T01:16:16.674Z,102434.34
2023-01-26T01:19:01.947Z,102429.16
2023-01-26T01:21:47.142Z,102432.72
2023-01-26T01:24:34.428Z,102432.72
2023-01-26T01:27:19.475Z,102445.72
2023-01-26T01:30:07.940Z,102432.84
2023-01-26T01:32:53.564Z,102439.75
2023-01-26T01:35:38.454Z,102438.97
2023-01-26T01:38:23.480Z,102439.03
2023-01-26T01:41:09.296Z,102428.91
2023-01-26T01:44:14.436Z,102449.59
2023-01-26T01:47:04.027Z,102454.03
2023-01-26T01:49:52.435Z,102457.59
2023-01-26T01:52:37.667Z,102465.38
2023-01-26T01:55:23.279Z,102453.31
2023-01-26T01:58:09.623Z,102458.47
2023-01-26T02:00:55.448Z,102453.31
2023-01-26T02:03:42.706Z,102432.66
2023-01-26T02:06:30.952Z,102440.44
2023-01-26T02:09:36.162Z,102438.75
2023-01-26T02:12:25.324Z,102457.66
2023-01-26T02:15:10.913Z,102462.84
2023-01-26T02:17:57.555Z,102469.72
2023-01-26T02:20:45.912Z,102461.94
2023-01-26T02:23:58.766Z,102456.81
2023-01-26T02:26:43.788Z,102467.25
2023-01-26T02:29:29.129Z,102458.78
2023-01-26T02:32:14.569Z,102451.06
2023-01-26T02:34:59.744Z,102471.75
2023-01-26T02:37:44.883Z,102484.78
2023-01-26T02:40:45.970Z,102477.91
2023-01-26T02:43:32.682Z,102472.72
2023-01-26T02:46:17.770Z,102481.41
2023-01-26T02:49:21.364Z,102490.16
2023-01-26T02:52:07.565Z,102460.03
2023-01-26T02:55:12.035Z,102472.88
2023-01-26T02:58:04.346Z,102478.97
2023-01-26T03:00:49.522Z,102479.81
2023-01-26T03:03:45.100Z,102466.16
2023-01-26T03:06:30.294Z,102479.03
2023-01-26T03:09:15.436Z,102492.06
2023-01-26T03:12:00.286Z,102494.66
2023-01-26T03:14:45.418Z,102461.97
2023-01-26T03:17:30.542Z,102479.19
2023-01-26T03:20:34.323Z,102480.09
2023-01-26T03:23:38.347Z,102474.91
2023-01-26T03:26:42.344Z,102480.97
2023-01-26T03:29:27.733Z,102472.41
2023-01-26T03:32:13.202Z,102480.19
2023-01-26T03:34:58.231Z,102479.34
2023-01-26T03:37:44.735Z,102470.69
2023-01-26T03:40:48.416Z,102462.16
2023-01-26T03:43:52.192Z,102469.84
2023-01-26T03:46:56.192Z,102465.59
2023-01-26T03:49:59.851Z,102480.28
2023-01-26T03:53:03.840Z,102471.78
2023-01-26T03:56:07.677Z,102459.75
2023-01-26T03:58:55.135Z,102483.81
2023-01-26T04:02:01.427Z,102487.31
2023-01-26T04:05:05.437Z,102488.19
2023-01-26T04:08:09.335Z,102486.47
2023-01-26T04:10:55.516Z,102488.22
2023-01-26T04:13:59.053Z,102491.72
2023-01-26T04:17:03.027Z,102495.19
2023-01-26T04:20:07.244Z,102501.34
2023-01-26T04:22:52.689Z,102509.97
2023-01-26T04:25:37.864Z,102503.94
2023-01-26T04:28:22.860Z,102505.63
2023-01-26T04:31:08.720Z,102504.78
2023-01-26T04:33:54.120Z,102502.22
2023-01-26T04:36:39.807Z,102510.88
2023-01-26T04:39:24.793Z,102516.91
2023-01-26T04:42:09.737Z,102519.50
2023-01-26T04:44:54.987Z,102527.34
2023-01-26T04:47:40.255Z,102514.34
2023-01-26T04:50:25.309Z,102516.94
2023-01-26T04:53:10.360Z,102517.91
2023-01-26T04:55:55.580Z,102527.44
2023-01-26T04:58:40.881Z,102524.03
2023-01-26T05:01:26.601Z,102522.34
2023-01-26T05:04:13.096Z,102518.06
2023-01-26T05:06:58.534Z,102522.44
2023-01-26T05:09:43.761Z,102509.53
2023-01-26T05:12:34.655Z,102503.53
2023-01-26T05:15:19.596Z,102519.88
2023-01-26T05:18:06.130Z,102506.97
2023-01-26T05:20:51.246Z,102488.06
2023-01-26T05:23:36.879Z,102513.91
2023-01-26T05:26:22.158Z,102512.16
2023-01-26T05:29:07.907Z,102512.22
2023-01-26T05:31:52.864Z,102513.97
2023-01-26T05:34:38.624Z,102497.63
2023-01-26T05:37:28.306Z,102512.22
2023-01-26T05:40:14.020Z,102496.78
2023-01-26T05:42:59.719Z,102504.59
2023-01-26T05:45:44.828Z,102514.88
2023-01-26T05:48:30.171Z,102501.94
2023-01-26T05:51:15.291Z,102527.81
2023-01-26T05:54:00.382Z,102507.13
2023-01-26T05:56:45.371Z,102520.06
2023-01-26T05:59:30.568Z,102498.63
2023-01-26T06:02:15.350Z,102508.00
2023-01-26T06:05:00.537Z,102519.25
2023-01-26T06:07:45.526Z,102522.69
2023-01-26T06:10:30.602Z,102528.75
2023-01-26T06:13:15.893Z,102527.03
2023-01-26T06:16:01.945Z,102522.66
2023-01-26T06:18:49.906Z,102510.63
2023-01-26T06:21:35.157Z,102533.03
2023-01-26T06:24:20.394Z,102531.25
2023-01-26T06:27:11.734Z,102541.56
2023-01-26T06:29:57.129Z,102533.81
2023-01-26T06:32:42.438Z,102540.66
2023-01-26T06:35:27.633Z,102549.22
2023-01-26T06:38:15.316Z,102550.06
2023-01-26T06:41:03.007Z,102548.31
2023-01-26T06:43:49.256Z,102540.59
2023-01-26T06:46:34.758Z,102562.97
2023-01-26T06:49:19.843Z,102561.22
2023-01-26T06:52:31.948Z,102562.06
2023-01-26T06:55:22.607Z,102568.06
2023-01-26T06:58:07.549Z,102573.25
2023-01-26T07:00:52.991Z,102568.03
2023-01-26T07:03:38.263Z,102580.09
2023-01-26T07:06:23.490Z,102568.97
2023-01-26T07:09:08.396Z,102599.09
2023-01-26T07:11:53.271Z,102575.81
2023-01-26T07:14:38.923Z,102590.44
2023-01-26T07:17:24.212Z,102574.88
2023-01-26T07:20:11.394Z,102587.78
2023-01-26T07:22:56.599Z,102592.13
2023-01-26T07:25:44.223Z,102593.84
2023-01-26T07:28:30.601Z,102587.81
2023-01-26T07:31:16.114Z,102590.34
2023-01-26T07:34:01.221Z,102582.56
2023-01-26T07:36:46.432Z,102585.13
2023-01-26T07:39:31.842Z,102593.78
2023-01-26T07:42:16.909Z,102582.63
2023-01-26T07:45:02.321Z,102598.91
2023-01-26T07:47:48.040Z,102582.63
2023-01-26T07:50:33.203Z,102597.19
2023-01-26T07:53:22.949Z,102589.47
2023-01-26T07:56:10.890Z,102593.81
2023-01-26T07:58:56.127Z,102607.50
2023-01-26T08:01:41.447Z,102610.91
2023-01-26T08:04:27.003Z,102603.97
2023-01-26T08:07:11.980Z,102598.69
2023-01-26T08:09:59.001Z,102603.81
2023-01-26T08:12:43.827Z,102603.00
2023-01-26T08:15:29.076Z,102603.03
2023-01-26T08:18:14.345Z,102626.38
2023-01-26T08:21:00.358Z,102622.97
2023-01-26T08:23:50.319Z,102631.56
2023-01-26T08:26:51.053Z,102626.38
2023-01-26T08:29:36.196Z,102637.63
2023-01-26T08:32:21.582Z,102639.28
2023-01-26T08:35:07.174Z,102644.47
2023-01-26T08:37:52.466Z,102648.81
2023-01-26T08:40:38.052Z,102646.22
2023-01-26T08:43:23.002Z,102646.22
2023-01-26T08:46:08.568Z,102648.75
2023-01-26T08:48:53.615Z,102637.53
2023-01-26T08:51:38.582Z,102634.94
2023-01-26T08:54:23.611Z,102658.22
2023-01-26T08:57:08.771Z,102660.78
2023-01-26T08:59:53.757Z,102646.16
2023-01-26T09:02:39.103Z,102664.97
2023-01-26T09:05:24.143Z,102665.75
2023-01-26T09:08:09.661Z,102652.81
2023-01-26T09:10:54.989Z,102653.66
2023-01-26T09:13:40.467Z,102645.06
2023-01-26T09:16:25.744Z,102639.94
2023-01-26T09:19:11.047Z,102654.66
2023-01-26T09:21:56.268Z,102639.25
2023-01-26T09:24:41.155Z,102658.16
2023-01-26T09:27:26.296Z,102651.19
2023-01-26T09:30:12.224Z,102637.41
2023-01-26T09:33:02.219Z,102654.56
2023-01-26T09:35:47.511Z,102660.59
2023-01-26T09:38:32.992Z,102659.69
2023-01-26T09:41:35.006Z,102662.22
2023-01-26T09:44:24.964Z,102669.91
2023-01-26T09:47:42.413Z,102668.16
2023-01-26T09:50:33.979Z,102664.53
2023-01-26T09:53:25.956Z,102662.69
2023-01-26T09:56:18.417Z,102655.03
2023-01-26T09:59:32.008Z,102671.28
2023-01-26T10:02:16.827Z,102672.09
2023-01-26T10:05:13.837Z,102666.91
2023-01-26T10:07:59.396Z,102680.69
2023-01-26T10:10:49.408Z,102688.31
2023-01-26T10:13:34.631Z,102679.72
2023-01-26T10:16:19.669Z,102689.06
2023-01-26T10:19:12.720Z,102689.06
2023-01-26T10:22:00.590Z,102673.56
2023-01-26T10:24:49.256Z,102659.69
2023-01-26T10:27:34.209Z,102691.50
2023-01-26T10:30:21.286Z,102683.78
2023-01-26T10:33:16.389Z,102699.19
2023-01-26T10:36:03.914Z,102715.50
2023-01-26T10:38:50.345Z,102704.19
2023-01-26T10:41:36.216Z,102690.38
2023-01-26T10:44:28.910Z,102707.63
2023-01-26T10:47:19.819Z,102700.56
2023-01-26T10:50:21.781Z,102701.41
2023-01-26T10:53:06.625Z,102713.44
2023-01-26T10:56:04.323Z,102714.22
2023-01-26T10:58:58.932Z,102699.47
2023-01-26T11:02:00.908Z,102705.59
2023-01-26T11:05:25.752Z,102703.81
2023-01-26T11:08:37.129Z,102704.81
2023-01-26T11:11:27.187Z,102706.59
2023-01-26T11:14:15.832Z,102704.84
2023-01-26T11:17:21.309Z,102710.72
2023-01-26T11:20:18.401Z,102704.81
2023-01-26T11:23:29.401Z,102701.28
2023-01-26T11:26:26.764Z,102693.28
2023-01-26T11:29:36.670Z,102680.13
2023-01-26T11:32:47.099Z,102667.75
2023-01-26T11:35:39.497Z,102681.38
2023-01-26T11:38:38.264Z,102683.06
2023-01-26T11:41:28.003Z,102691.66
2023-01-26T11:44:29.806Z,102678.56
2023-01-26T11:47:27.126Z,102684.59
2023-01-26T11:50:45.610Z,102666.50
2023-01-26T11:54:09.077Z,102684.53
2023-01-26T11:57:10.714Z,102674.84
2023-01-26T12:00:05.560Z,102669.88
2023-01-26T12:03:05.352Z,102676.00
2023-01-26T12:05:54.157Z,102644.13
2023-01-26T12:08:43.864Z,102640.69
2023-01-26T12:11:39.167Z,102660.47
2023-01-26T12:14:40.714Z,102656.91
2023-01-26T12:17:36.135Z,102655.09
2023-01-26T12:20:42.482Z,102639.47
2023-01-26T12:24:35.786Z,102645.34
2023-01-26T12:27:28.324Z,102622.91
2023-01-26T12:30:19.358Z,102637.28
2023-01-26T12:33:04.371Z,102629.47
2023-01-26T12:36:20.853Z,102638.06
2023-01-26T12:39:08.748Z,102625.19
2023-01-26T12:42:12.129Z,102631.09
2023-01-26T12:45:02.224Z,102643.09
2023-01-26T12:47:56.749Z,102637.81
2023-01-26T12:50:47.038Z,102628.38
2023-01-26T12:53:42.506Z,102638.66
2023-01-26T12:56:32.692Z,102639.50
2023-01-26T12:59:47.185Z,102613.94
2023-01-26T13:02:32.296Z,102634.16
2023-01-26T13:05:33.798Z,102637.72
2023-01-26T13:08:31.148Z,102627.72
2023-01-26T13:11:56.569Z,102637.22
2023-01-26T13:14:44.987Z,102643.28
2023-01-26T13:17:50.452Z,102641.59
2023-01-26T13:20:43.319Z,102657.22
2023-01-26T13:23:28.615Z,102650.50
2023-01-26T13:26:25.456Z,102648.78
2023-01-26T13:29:28.917Z,102642.72
2023-01-26T13:32:14.453Z,102644.44
2023-01-26T13:35:04.009Z,102629.72
2023-01-26T13:37:53.359Z,102636.59
2023-01-26T13:40:43.989Z,102621.94
2023-01-26T13:43:42.293Z,102626.13
2023-01-26T13:46:39.797Z,102635.63
2023-01-26T13:49:38.021Z,102638.22
2023-01-26T13:52:26.283Z,102640.69
2023-01-26T13:55:22.470Z,102633.69
2023-01-26T13:58:15.593Z,102645.72
2023-01-26T14:01:06.637Z,102646.47
2023-01-26T14:04:06.568Z,102641.19
2023-01-26T14:06:56.279Z,102636.88
2023-01-26T14:09:49.722Z,102631.69
2023-01-26T14:12:41.684Z,102632.66
2023-01-26T14:15:29.589Z,102627.41
2023-01-26T14:18:22.467Z,102633.50
2023-01-26T14:21:18.807Z,102636.91
2023-01-26T14:24:09.128Z,102613.53
2023-01-26T14:26:54.522Z,102640.94
2023-01-26T14:29:39.711Z,102646.03
2023-01-26T14:32:29.221Z,102634.84
2023-01-26T14:35:23.369Z,102635.63
2023-01-26T14:38:11.642Z,102641.75
2023-01-26T14:40:59.459Z,102637.53
2023-01-26T14:43:44.709Z,102622.91
2023-01-26T14:46:30.079Z,102650.50
2023-01-26T14:49:25.671Z,102638.88
2023-01-26T14:52:24.031Z,102640.50
2023-01-26T14:55:24.363Z,102645.16
2023-01-26T14:58:19.862Z,102623.16
2023-01-26T15:01:05.588Z,102619.88
2023-01-26T15:03:56.603Z,102649.06
2023-01-26T15:06:41.563Z,102646.94
2023-01-26T15:09:28.443Z,102642.84
2023-01-26T15:12:17.074Z,102648.16
2023-01-26T15:15:02.751Z,102642.22
2023-01-26T15:18:01.264Z,102633.75
2023-01-26T15:21:01.070Z,102656.13
2023-01-26T15:23:51.410Z,102660.53
2023-01-26T15:26:36.502Z,102659.66
2023-01-26T15:29:30.903Z,102637.22
2023-01-26T15:32:42.381Z,102657.16
2023-01-26T15:35:33.061Z,102664.97
2023-01-26T15:38:18.130Z,102661.47
2023-01-26T15:41:03.412Z,102667.56
2023-01-26T15:43:48.468Z,102662.44
2023-01-26T15:46:33.379Z,102663.28
2023-01-26T15:49:20.048Z,102635.72
2023-01-26T15:52:21.266Z,102658.19
2023-01-26T15:55:26.459Z,102657.31
2023-01-26T15:58:12.239Z,102663.38
2023-01-26T16:00:57.862Z,102653.03
2023-01-26T16:03:43.100Z,102669.59
2023-01-26T16:06:33.292Z,102671.53
2023-01-26T16:09:18.548Z,102674.38
2023-01-26T16:12:03.854Z,102676.06
2023-01-26T16:14:49.239Z,102674.47
2023-01-26T16:17:34.265Z,102660.78
2023-01-26T16:20:19.519Z,102677.16
2023-01-26T16:23:16.280Z,102666.72
2023-01-26T16:26:01.396Z,102674.63
2023-01-26T16:28:47.142Z,102673.84
2023-01-26T16:31:34.548Z,102679.91
2023-01-26T16:34:19.574Z,102662.75
2023-01-26T16:37:04.459Z,102672.13
2023-01-26T16:39:49.568Z,102693.63
2023-01-26T16:42:38.653Z,102694.66
2023-01-26T16:45:28.782Z,102686.81
2023-01-26T16:48:15.103Z,102693.78
2023-01-26T16:51:02.977Z,102694.56
2023-01-26T16:53:48.325Z,102691.13
2023-01-26T16:56:33.327Z,102695.47
2023-01-26T16:59:18.648Z,102691.34
2023-01-26T17:02:04.186Z,102694.00
2023-01-26T17:04:49.619Z,102697.31
2023-01-26T17:07:34.781Z,102691.13
2023-01-26T17:10:22.527Z,102692.00
2023-01-26T17:13:09.585Z,102674.88
2023-01-26T17:15:56.617Z,102693.00
2023-01-26T17:18:42.550Z,102683.41
2023-01-26T17:21:27.613Z,102676.59
2023-01-26T17:24:12.907Z,102670.63
2023-01-26T17:26:57.990Z,102699.13
2023-01-26T17:29:43.213Z,102681.16
2023-01-26T17:32:28.289Z,102699.22
2023-01-26T17:35:13.629Z,102698.53
2023-01-26T17:37:59.177Z,102711.38
2023-01-26T17:40:44.509Z,102719.25
2023-01-26T17:43:29.645Z,102715.84
2023-01-26T17:46:16.967Z,102711.63
2023-01-26T17:49:01.995Z,102704.81
2023-01-26T17:51:47.702Z,102694.63
2023-01-26T17:54:32.883Z,102698.19
2023-01-26T17:57:17.960Z,102705.03
2023-01-26T18:00:04.945Z,102710.09
2023-01-26T18:02:50.238Z,102728.41
2023-01-26T18:05:35.261Z,102707.78
2023-01-26T18:08:21.058Z,102696.56
2023-01-26T18:11:08.897Z,102701.72
2023-01-26T18:13:54.238Z,102708.53
2023-01-26T18:16:39.329Z,102710.34
2023-01-26T18:19:24.671Z,102699.72
2023-01-26T18:22:09.959Z,102717.22
2023-01-26T18:24:55.109Z,102707.25
2023-01-26T18:27:40.439Z,102725.34
2023-01-26T18:30:25.631Z,102710.41
2023-01-26T18:33:11.150Z,102721.81
2023-01-26T18:36:03.474Z,102726.19
2023-01-26T18:38:54.976Z,102727.19
2023-01-26T18:41:40.819Z,102712.53
2023-01-26T18:44:27.290Z,102721.25
2023-01-26T18:47:12.882Z,102725.72
2023-01-26T18:49:58.242Z,102722.34
2023-01-26T18:52:43.206Z,102731.91
2023-01-26T18:55:28.839Z,102735.41
2023-01-26T18:58:13.771Z,102720.72
2023-01-26T19:00:59.203Z,102730.28
2023-01-26T19:03:47.396Z,102730.50
2023-01-26T19:06:33.457Z,102739.19
2023-01-26T19:09:18.614Z,102721.97
2023-01-26T19:12:05.507Z,102737.47
2023-01-26T19:14:50.524Z,102745.41
2023-01-26T19:17:35.506Z,102744.56
2023-01-26T19:20:20.276Z,102742.91
2023-01-26T19:23:05.453Z,102750.75
2023-01-26T19:25:50.722Z,102752.59
2023-01-26T19:28:36.012Z,102762.97
2023-01-26T19:31:22.325Z,102750.88
2023-01-26T19:34:13.256Z,102757.81
2023-01-26T19:36:58.253Z,102750.00
2023-01-26T19:39:43.499Z,102744.00
2023-01-26T19:42:28.506Z,102746.59
2023-01-26T19:45:13.843Z,102746.66
2023-01-26T19:47:59.368Z,102757.97
2023-01-26T19:50:44.528Z,102753.66
2023-01-26T19:53:31.606Z,102755.38
2023-01-26T19:56:18.656Z,102756.34
2023-01-26T19:59:06.324Z,102748.53
2023-01-26T20:01:51.704Z,102745.03
2023-01-26T20:04:36.796Z,102751.97
2023-01-26T20:07:22.271Z,102752.03
2023-01-26T20:10:07.737Z,102740.00
2023-01-26T20:12:53.048Z,102733.91
2023-01-26T20:15:38.425Z,102724.28
2023-01-26T20:18:24.014Z,102727.00
2023-01-26T20:21:09.116Z,102715.81
2023-01-26T20:23:55.830Z,102715.88
2023-01-26T20:26:44.340Z,102731.28
2023-01-26T20:29:29.731Z,102727.06
2023-01-26T20:32:14.723Z,102718.34
2023-01-26T20:35:00.665Z,102714.09
2023-01-26T20:37:45.684Z,102708.97
2023-01-26T20:40:31.036Z,102704.69
2023-01-26T20:43:16.189Z,102709.81
2023-01-26T20:46:04.112Z,102710.91
2023-01-26T20:48:49.249Z,102704.81
2023-01-26T20:51:36.120Z,102698.88
2023-01-26T20:54:22.156Z,102714.41
2023-01-26T20:57:07.908Z,102704.97
2023-01-26T20:59:53.200Z,102710.28
2023-01-26T21:02:38.280Z,102717.22
2023-01-26T21:05:23.332Z,102713.78
2023-01-26T21:08:08.496Z,102713.72
2023-01-26T21:10:53.623Z,102715.47
2023-01-26T21:13:42.315Z,102718.94
2023-01-26T21:16:28.667Z,102712.03
2023-01-26T21:19:13.799Z,102711.16
2023-01-26T21:21:59.470Z,102724.84
2023-01-26T21:24:44.715Z,102732.72
2023-01-26T21:27:30.211Z,102729.25
2023-01-26T21:30:15.338Z,102726.69
2023-01-26T21:33:00.621Z,102736.22
2023-01-26T21:35:45.557Z,102726.78
2023-01-26T21:38:33.684Z,102730.19
2023-01-26T21:41:49.397Z,102733.63
2023-01-26T21:44:57.554Z,102726.81
2023-01-26T21:47:42.785Z,102741.38
2023-01-26T21:50:48.084Z,102740.53
2023-01-26T21:53:33.114Z,102737.91
2023-01-26T21:56:18.176Z,102741.38
2023-01-26T21:59:06.209Z,102740.50
2023-01-26T22:01:53.651Z,102729.28
2023-01-26T22:04:38.746Z,102734.47
2023-01-26T22:07:23.817Z,102743.06
2023-01-26T22:10:10.162Z,102749.97
2023-01-26T22:12:55.391Z,102744.00
2023-01-26T22:15:40.272Z,102751.06
2023-01-26T22:18:25.243Z,102748.41
2023-01-26T22:21:10.588Z,102737.16
2023-01-26T22:23:55.781Z,102749.28
2023-01-26T22:26:41.704Z,102736.44
2023-01-26T22:29:27.015Z,102755.31
2023-01-26T22:32:12.428Z,102755.31
2023-01-26T22:34:57.661Z,102760.63
2023-01-26T22:37:42.969Z,102760.63
2023-01-26T22:40:27.934Z,102758.88
2023-01-26T22:43:12.772Z,102748.63
2023-01-26T22:46:03.428Z,102726.34
2023-01-26T22:48:48.914Z,102752.97
2023-01-26T22:51:37.112Z,102755.59
2023-01-26T22:54:22.286Z,102748.88
2023-01-26T22:57:07.655Z,102750.63
2023-01-26T22:59:54.543Z,102754.88
2023-01-26T23:02:39.728Z,102755.63
2023-01-26T23:05:24.630Z,102753.84
2023-01-26T23:08:09.867Z,102727.25
2023-01-26T23:11:03.459Z,102748.78
2023-01-26T23:13:51.310Z,102739.28
2023-01-26T23:16:36.671Z,102736.78
2023-01-26T23:19:22.211Z,102747.94
2023-01-26T23:22:07.370Z,102743.66
2023-01-26T23:25:11.194Z,102743.66
2023-01-26T23:27:56.545Z,102741.94
2023-01-26T23:30:41.923Z,102739.38
2023-01-26T23:33:29.459Z,102737.66
2023-01-26T23:36:15.538Z,102723.78
2023-01-26T23:39:00.620Z,102727.25
2023-01-26T23:41:45.745Z,102716.09
2023-01-26T23:44:30.675Z,102735.94
2023-01-26T23:47:15.743Z,102732.50
2023-01-26T23:50:00.971Z,102725.69
2023-01-26T23:52:45.886Z,102731.69
2023-01-26T23:55:31.096Z,102723.16
2023-01-26T23:58:16.285Z,102720.53
